createdAt,value
2019-05-05T00:00:08.550Z,2.40
2019-05-05T00:02:41.380Z,1.80
2019-05-05T00:05:27.246Z,1.80
2019-05-05T00:07:55.981Z,2.10
2019-05-05T00:10:29.103Z,2.27
2019-05-05T00:13:01.235Z,1.50
2019-05-05T00:15:47.336Z,1.63
2019-05-05T00:18:21.420Z,1.47
2019-05-05T00:20:51.257Z,1.50
2019-05-05T00:23:20.109Z,1.50
2019-05-05T00:25:48.856Z,1.50
2019-05-05T00:28:18.332Z,1.50
2019-05-05T00:30:46.885Z,1.60
2019-05-05T00:33:18.595Z,1.80
2019-05-05T00:35:47.291Z,1.37
2019-05-05T00:38:15.925Z,1.60
2019-05-05T00:40:44.673Z,1.40
2019-05-05T00:43:14.772Z,1.53
2019-05-05T00:45:45.245Z,1.60
2019-05-05T00:48:24.568Z,1.30
2019-05-05T00:50:56.279Z,1.30
2019-05-05T00:53:28.747Z,1.70
2019-05-05T00:55:57.365Z,1.30
2019-05-05T00:58:27.345Z,1.40
2019-05-05T01:00:58.120Z,1.77
2019-05-05T01:03:27.091Z,1.50
2019-05-05T01:05:57.867Z,1.77
2019-05-05T01:08:29.961Z,2.50
2019-05-05T01:10:58.957Z,1.93
2019-05-05T01:13:27.678Z,1.70
2019-05-05T01:15:56.422Z,1.53
2019-05-05T01:18:25.110Z,1.20
2019-05-05T01:20:55.192Z,1.47
2019-05-05T01:23:24.524Z,1.60
2019-05-05T01:25:56.545Z,1.30
2019-05-05T01:28:26.809Z,1.30
2019-05-05T01:30:57.392Z,1.23
2019-05-05T01:33:30.110Z,2.43
2019-05-05T01:36:01.889Z,1.43
2019-05-05T01:38:37.911Z,1.60
2019-05-05T01:41:08.941Z,1.73
2019-05-05T01:43:37.570Z,1.30
2019-05-05T01:46:06.788Z,1.30
2019-05-05T01:48:35.892Z,1.50
2019-05-05T01:51:05.099Z,2.00
2019-05-05T01:53:34.934Z,1.43
2019-05-05T01:56:04.825Z,1.80
2019-05-05T01:58:35.593Z,1.93
2019-05-05T02:01:05.081Z,1.40
2019-05-05T02:03:34.995Z,1.63
2019-05-05T02:06:05.247Z,1.50
2019-05-05T02:08:34.988Z,1.63
2019-05-05T02:11:05.204Z,1.70
2019-05-05T02:13:34.651Z,1.63
2019-05-05T02:16:04.663Z,2.00
2019-05-05T02:18:34.556Z,1.80
2019-05-05T02:21:07.808Z,2.27
2019-05-05T02:23:37.152Z,1.87
2019-05-05T02:26:07.650Z,1.80
2019-05-05T02:28:40.953Z,1.73
2019-05-05T02:31:16.943Z,1.70
2019-05-05T02:33:46.057Z,1.93
2019-05-05T02:36:15.938Z,1.90
2019-05-05T02:38:46.177Z,1.70
2019-05-05T02:41:16.294Z,1.97
2019-05-05T02:43:45.785Z,2.13
2019-05-05T02:46:31.768Z,2.03
2019-05-05T02:49:05.362Z,2.20
2019-05-05T02:51:37.727Z,2.63
2019-05-05T02:54:06.945Z,2.07
2019-05-05T02:56:39.776Z,1.80
2019-05-05T02:59:10.751Z,2.33
2019-05-05T03:01:41.193Z,2.33
2019-05-05T03:04:10.488Z,2.40
2019-05-05T03:06:43.734Z,2.13
2019-05-05T03:09:15.177Z,2.40
2019-05-05T03:11:47.822Z,2.30
2019-05-05T03:14:19.687Z,2.60
2019-05-05T03:16:49.656Z,2.23
2019-05-05T03:19:23.543Z,2.73
2019-05-05T03:21:54.556Z,2.07
2019-05-05T03:24:23.636Z,2.40
2019-05-05T03:26:54.175Z,3.73
2019-05-05T03:29:24.375Z,3.60
2019-05-05T03:31:56.230Z,4.07
2019-05-05T03:34:24.125Z,3.80
2019-05-05T03:36:53.716Z,2.83
2019-05-05T03:39:24.294Z,3.10
2019-05-05T03:42:13.810Z,3.23
2019-05-05T03:44:54.495Z,2.93
2019-05-05T03:47:24.158Z,2.77
2019-05-05T03:49:53.647Z,2.87
2019-05-05T03:52:24.433Z,2.80
2019-05-05T03:54:55.522Z,3.03
2019-05-05T03:57:24.722Z,2.97
2019-05-05T03:59:54.749Z,2.93
2019-05-05T04:02:34.242Z,2.80
2019-05-05T04:05:07.505Z,3.00
2019-05-05T04:07:36.709Z,2.60
2019-05-05T04:10:06.843Z,2.90
2019-05-05T04:12:35.832Z,3.20
2019-05-05T04:15:06.101Z,2.87
2019-05-05T04:17:44.306Z,2.97
2019-05-05T04:20:18.734Z,4.73
2019-05-05T04:22:49.712Z,4.80
2019-05-05T04:25:18.419Z,4.77
2019-05-05T04:27:46.987Z,4.17
2019-05-05T04:30:15.702Z,3.50
2019-05-05T04:32:44.344Z,3.50
2019-05-05T04:35:14.124Z,4.07
2019-05-05T04:37:43.743Z,3.30
2019-05-05T04:40:14.881Z,3.50
2019-05-05T04:42:44.123Z,3.33
2019-05-05T04:45:14.786Z,3.00
2019-05-05T04:47:45.381Z,3.27
2019-05-05T04:50:18.322Z,2.90
2019-05-05T04:52:46.331Z,2.70
2019-05-05T04:55:16.758Z,2.97
2019-05-05T04:57:45.343Z,3.23
2019-05-05T05:00:14.407Z,3.47
2019-05-05T05:02:56.410Z,3.37
2019-05-05T05:05:26.682Z,3.57
2019-05-05T05:07:57.900Z,3.07
2019-05-05T05:10:25.631Z,3.20
2019-05-05T05:12:57.324Z,3.53
2019-05-05T05:15:27.504Z,3.47
2019-05-05T05:18:06.284Z,3.50
2019-05-05T05:20:34.907Z,3.80
2019-05-05T05:23:03.775Z,3.23
2019-05-05T05:25:34.662Z,3.20
2019-05-05T05:28:04.167Z,3.10
2019-05-05T05:30:34.823Z,3.40
2019-05-05T05:33:04.393Z,2.97
2019-05-05T05:35:34.608Z,3.60
2019-05-05T05:38:04.854Z,3.70
2019-05-05T05:40:53.563Z,3.07
2019-05-05T05:43:28.514Z,3.50
2019-05-05T05:45:58.756Z,3.57
2019-05-05T05:48:34.063Z,3.00
2019-05-05T05:51:04.262Z,3.10
2019-05-05T05:53:35.009Z,2.93
2019-05-05T05:56:04.383Z,3.47
2019-05-05T05:58:39.231Z,3.13
2019-05-05T06:01:07.858Z,2.80
2019-05-05T06:03:36.491Z,3.00
2019-05-05T06:06:05.223Z,3.23
2019-05-05T06:08:37.237Z,2.50
2019-05-05T06:11:05.793Z,3.10
2019-05-05T06:13:34.448Z,2.83
2019-05-05T06:16:04.232Z,3.00
2019-05-05T06:18:34.510Z,3.13
2019-05-05T06:21:05.888Z,2.93
2019-05-05T06:23:34.695Z,3.13
2019-05-05T06:26:06.802Z,3.10
2019-05-05T06:28:34.301Z,2.90
2019-05-05T06:31:04.883Z,3.00
2019-05-05T06:33:34.769Z,3.53
2019-05-05T06:36:03.885Z,3.53
2019-05-05T06:38:37.323Z,3.20
2019-05-05T06:41:17.030Z,4.03
2019-05-05T06:44:03.801Z,3.43
2019-05-05T06:46:50.552Z,2.67
2019-05-05T06:49:19.257Z,3.30
2019-05-05T06:51:49.706Z,3.77
2019-05-05T06:54:18.304Z,4.07
2019-05-05T06:56:47.265Z,3.60
2019-05-05T06:59:15.991Z,3.20
2019-05-05T07:01:44.977Z,3.43
2019-05-05T07:04:14.012Z,3.60
2019-05-05T07:06:53.518Z,3.30
2019-05-05T07:09:14.268Z,3.70
2019-05-05T07:11:44.589Z,4.00
2019-05-05T07:14:14.277Z,3.57
2019-05-05T07:16:46.125Z,3.57
2019-05-05T07:19:14.779Z,2.97
2019-05-05T07:21:43.703Z,3.57
2019-05-05T07:24:14.539Z,3.90
2019-05-05T07:26:44.691Z,3.70
2019-05-05T07:29:16.330Z,3.70
2019-05-05T07:31:43.921Z,3.20
2019-05-05T07:34:14.203Z,3.70
2019-05-05T07:36:46.176Z,3.93
2019-05-05T07:39:16.251Z,5.40
2019-05-05T07:41:54.144Z,4.30
2019-05-05T07:44:29.040Z,3.77
2019-05-05T07:46:54.340Z,3.53
2019-05-05T07:49:24.360Z,3.87
2019-05-05T07:51:54.656Z,3.33
2019-05-05T07:54:25.647Z,3.20
2019-05-05T07:56:55.928Z,3.10
2019-05-05T07:59:24.606Z,3.60
2019-05-05T08:01:54.795Z,2.93
2019-05-05T08:04:24.338Z,3.53
2019-05-05T08:06:56.466Z,3.40
2019-05-05T08:09:25.163Z,4.63
2019-05-05T08:11:58.275Z,4.10
2019-05-05T08:14:31.094Z,3.40
2019-05-05T08:17:04.139Z,2.93
2019-05-05T08:19:40.349Z,3.10
2019-05-05T08:22:26.278Z,3.27
2019-05-05T08:25:14.569Z,2.53
2019-05-05T08:28:00.113Z,2.53
2019-05-05T08:30:40.130Z,2.03
2019-05-05T08:33:14.264Z,2.47
2019-05-05T08:35:54.248Z,2.33
2019-05-05T08:38:28.289Z,2.43
2019-05-05T08:41:04.733Z,1.90
2019-05-05T08:43:43.974Z,2.35
2019-05-05T08:49:17.075Z,1.47
2019-05-05T08:51:46.284Z,1.90
2019-05-05T08:54:18.118Z,1.55
2019-05-05T08:57:09.205Z,2.30
2019-05-05T08:59:39.490Z,2.05
2019-05-05T09:02:11.903Z,1.50
2019-05-05T09:04:47.456Z,1.85
2019-05-05T09:07:20.478Z,1.85
2019-05-05T09:10:06.634Z,1.87
2019-05-05T09:12:37.727Z,1.82
2019-05-05T09:15:08.174Z,1.92
2019-05-05T09:17:39.430Z,1.65
2019-05-05T09:20:08.189Z,2.05
2019-05-05T09:22:37.301Z,1.77
2019-05-05T09:25:37.036Z,1.40
2019-05-05T09:28:16.898Z,1.85
2019-05-05T09:30:47.215Z,1.35
2019-05-05T09:33:18.314Z,1.70
2019-05-05T09:35:46.658Z,1.72
2019-05-05T09:38:15.400Z,1.98
2019-05-05T09:40:45.588Z,1.75
2019-05-05T09:43:15.821Z,1.72
2019-05-05T09:45:46.103Z,2.00
2019-05-05T09:48:27.094Z,1.87
2019-05-05T09:50:57.796Z,1.87
2019-05-05T09:53:27.391Z,1.72
2019-05-05T09:55:57.687Z,1.90
2019-05-05T09:58:26.555Z,1.65
2019-05-05T10:00:59.636Z,2.08
2019-05-05T10:03:28.343Z,1.90
2019-05-05T10:05:57.103Z,2.00
2019-05-05T10:08:26.463Z,1.72
2019-05-05T10:10:55.433Z,1.92
2019-05-05T10:13:24.235Z,1.87
2019-05-05T10:15:54.801Z,1.82
2019-05-05T10:18:25.509Z,1.80
2019-05-05T10:20:56.422Z,2.10
2019-05-05T10:23:29.498Z,1.62
2019-05-05T10:26:01.279Z,1.50
2019-05-05T10:28:30.572Z,1.70
2019-05-05T10:31:01.521Z,1.55
2019-05-05T10:33:30.276Z,2.02
2019-05-05T10:36:00.413Z,1.65
2019-05-05T10:38:34.136Z,1.80
2019-05-05T10:41:04.278Z,1.75
2019-05-05T10:43:34.348Z,2.00
2019-05-05T10:46:05.581Z,1.52
2019-05-05T10:48:35.885Z,1.82
2019-05-05T10:51:04.875Z,1.85
2019-05-05T10:53:33.673Z,1.85
2019-05-05T10:56:04.290Z,1.77
2019-05-05T10:58:33.589Z,1.80
2019-05-05T11:01:04.199Z,1.35
2019-05-05T11:03:34.428Z,1.45
2019-05-05T11:06:04.528Z,1.85
2019-05-05T11:08:35.623Z,1.60
2019-05-05T11:11:05.081Z,1.65
2019-05-05T11:13:37.278Z,1.55
2019-05-05T11:16:06.370Z,1.55
2019-05-05T11:18:35.345Z,1.20
2019-05-05T11:21:05.049Z,1.80
2019-05-05T11:23:34.597Z,1.40
2019-05-05T11:26:14.156Z,1.92
2019-05-05T11:28:40.406Z,1.80
2019-05-05T11:31:10.776Z,1.67
2019-05-05T11:33:41.164Z,1.60
2019-05-05T11:36:20.199Z,1.57
2019-05-05T11:38:49.507Z,1.75
2019-05-05T11:41:18.139Z,1.70
2019-05-05T11:43:46.866Z,1.60
2019-05-05T11:46:15.644Z,1.52
2019-05-05T11:48:48.641Z,1.50
2019-05-05T11:51:18.782Z,1.25
2019-05-05T11:53:47.518Z,1.20
2019-05-05T11:56:19.044Z,1.52
2019-05-05T11:58:55.674Z,1.70
2019-05-05T12:01:27.379Z,1.55
2019-05-05T12:04:11.638Z,1.50
2019-05-05T12:06:46.280Z,1.32
2019-05-05T12:09:17.387Z,1.72
2019-05-05T12:11:51.410Z,1.55
2019-05-05T12:14:26.477Z,1.62
2019-05-05T12:16:53.718Z,1.35
2019-05-05T12:19:26.843Z,1.80
2019-05-05T12:21:57.792Z,1.47
2019-05-05T12:24:28.248Z,1.52
2019-05-05T12:27:03.661Z,1.60
2019-05-05T12:29:35.347Z,1.60
2019-05-05T12:32:07.403Z,1.65
2019-05-05T12:34:39.218Z,2.05
2019-05-05T12:37:09.176Z,1.90
2019-05-05T12:39:37.862Z,3.12
2019-05-05T12:42:06.829Z,1.45
2019-05-05T12:44:37.115Z,1.62
2019-05-05T12:47:08.966Z,1.40
2019-05-05T12:49:40.824Z,1.27
2019-05-05T12:52:10.673Z,1.20
2019-05-05T12:54:39.421Z,1.20
2019-05-05T12:57:09.795Z,1.92
2019-05-05T12:59:41.171Z,1.55
2019-05-05T13:02:14.419Z,1.60
2019-05-05T13:04:44.589Z,1.40
2019-05-05T13:07:15.913Z,1.80
2019-05-05T13:09:45.238Z,1.25
2019-05-05T13:12:15.156Z,1.40
2019-05-05T13:14:43.961Z,1.30
2019-05-05T13:17:19.600Z,2.00
2019-05-05T13:19:52.943Z,1.30
2019-05-05T13:22:33.772Z,1.45
2019-05-05T13:25:20.477Z,1.50
2019-05-05T13:27:49.278Z,1.52
2019-05-05T13:30:19.635Z,1.30
2019-05-05T13:32:51.596Z,1.50
2019-05-05T13:35:20.939Z,1.53
2019-05-05T13:37:54.914Z,1.50
2019-05-05T13:40:28.762Z,1.37
2019-05-05T13:43:04.113Z,1.30
2019-05-05T13:45:34.277Z,1.43
2019-05-05T13:48:04.700Z,1.27
2019-05-05T13:50:35.200Z,1.27
2019-05-05T13:53:04.055Z,1.72
2019-05-05T13:55:35.680Z,1.67
2019-05-05T13:58:08.669Z,1.40
2019-05-05T14:00:38.102Z,1.92
2019-05-05T14:03:07.665Z,1.53
2019-05-05T14:05:38.079Z,1.63
2019-05-05T14:08:07.091Z,1.95
2019-05-05T14:10:37.437Z,1.17
2019-05-05T14:13:10.409Z,1.30
2019-05-05T14:15:38.314Z,1.47
2019-05-05T14:18:17.638Z,1.70
2019-05-05T14:20:48.458Z,1.60
2019-05-05T14:23:21.269Z,2.30
2019-05-05T14:25:54.427Z,1.57
2019-05-05T14:28:25.081Z,1.60
2019-05-05T14:31:01.353Z,1.50
2019-05-05T14:33:34.975Z,1.67
2019-05-05T14:36:15.302Z,1.98
2019-05-05T14:38:41.023Z,1.80
2019-05-05T14:41:30.781Z,1.50
2019-05-05T14:44:04.337Z,1.85
2019-05-05T14:46:34.058Z,1.65
2019-05-05T14:49:15.197Z,1.82
2019-05-05T14:51:45.539Z,1.55
2019-05-05T14:54:14.955Z,1.67
2019-05-05T14:56:49.347Z,1.62
2019-05-05T14:59:20.614Z,1.90
2019-05-05T15:01:55.737Z,2.35
2019-05-05T15:04:28.769Z,2.20
2019-05-05T15:07:03.616Z,1.90
2019-05-05T15:09:41.125Z,1.83
2019-05-05T15:12:27.479Z,2.20
2019-05-05T15:14:57.773Z,2.40
2019-05-05T15:17:33.776Z,2.13
2019-05-05T15:20:02.674Z,1.83
2019-05-05T15:22:31.316Z,1.73
2019-05-05T15:25:06.549Z,2.30
2019-05-05T15:27:36.732Z,2.43
2019-05-05T15:30:09.249Z,2.20
2019-05-05T15:32:39.422Z,2.30
2019-05-05T15:35:20.237Z,2.77
2019-05-05T15:37:48.672Z,2.67
2019-05-05T15:40:17.936Z,2.47
2019-05-05T15:42:48.036Z,2.77
2019-05-05T15:45:23.419Z,2.40
2019-05-05T15:47:53.902Z,2.57
2019-05-05T15:50:23.587Z,3.50
2019-05-05T15:52:54.698Z,3.03
2019-05-05T15:55:27.632Z,3.33
2019-05-05T15:57:56.481Z,3.03
2019-05-05T16:00:27.261Z,3.70
2019-05-05T16:02:59.446Z,3.30
2019-05-05T16:05:29.592Z,3.63
2019-05-05T16:08:04.520Z,3.70
2019-05-05T16:10:38.492Z,3.40
2019-05-05T16:13:08.882Z,3.27
2019-05-05T16:15:39.214Z,3.20
2019-05-05T16:18:29.024Z,3.20
2019-05-05T16:21:08.222Z,2.70
2019-05-05T16:23:47.806Z,2.77
2019-05-05T16:26:20.846Z,2.60
2019-05-05T16:28:49.490Z,2.50
2019-05-05T16:31:19.800Z,2.40
2019-05-05T16:33:55.814Z,2.70
2019-05-05T16:36:24.496Z,2.60
2019-05-05T16:38:59.657Z,2.50
2019-05-05T16:41:28.390Z,2.67
2019-05-05T16:44:03.223Z,2.57
2019-05-05T16:46:40.268Z,2.20
2019-05-05T16:49:10.802Z,2.57
2019-05-05T16:51:43.898Z,2.33
2019-05-05T16:54:18.846Z,2.90
2019-05-05T16:56:50.632Z,2.40
2019-05-05T16:59:23.789Z,2.60
2019-05-05T17:01:54.166Z,2.70
2019-05-05T17:04:26.099Z,2.60
2019-05-05T17:07:03.899Z,2.50
2019-05-05T17:09:35.211Z,2.53
2019-05-05T17:12:09.539Z,2.37
2019-05-05T17:14:46.353Z,2.87
2019-05-05T17:17:26.044Z,3.13
2019-05-05T17:19:56.551Z,2.50
2019-05-05T17:22:30.878Z,2.70
2019-05-05T17:25:03.381Z,2.70
2019-05-05T17:27:47.861Z,2.57
2019-05-05T17:30:11.809Z,2.60
2019-05-05T17:32:45.252Z,2.30
2019-05-05T17:35:17.881Z,2.83
2019-05-05T17:37:46.663Z,3.87
2019-05-05T17:40:18.170Z,3.40
2019-05-05T17:42:53.580Z,3.00
2019-05-05T17:45:26.477Z,3.17
2019-05-05T17:47:56.744Z,2.90
2019-05-05T17:50:29.720Z,3.20
2019-05-05T17:53:09.051Z,2.80
2019-05-05T17:55:39.402Z,2.30
2019-05-05T17:58:11.373Z,3.00
2019-05-05T18:00:43.899Z,2.73
2019-05-05T18:03:12.194Z,2.53
2019-05-05T18:06:05.885Z,2.80
2019-05-05T18:08:54.579Z,2.47
2019-05-05T18:11:35.230Z,2.97
2019-05-05T18:14:05.820Z,2.43
2019-05-05T18:16:38.129Z,2.60
2019-05-05T18:19:09.638Z,2.97
2019-05-05T18:21:39.615Z,2.40
2019-05-05T18:24:13.774Z,3.37
2019-05-05T18:26:46.047Z,2.50
2019-05-05T18:29:17.224Z,2.90
2019-05-05T18:31:46.317Z,2.93
2019-05-05T18:34:15.203Z,2.77
2019-05-05T18:36:46.495Z,3.47
2019-05-05T18:39:15.173Z,2.97
2019-05-05T18:41:47.353Z,3.33
2019-05-05T18:44:27.197Z,3.40
2019-05-05T18:47:15.671Z,2.73
2019-05-05T18:49:48.646Z,3.37
2019-05-05T18:52:17.639Z,2.87
2019-05-05T18:54:47.340Z,3.10
2019-05-05T18:57:16.043Z,3.73
2019-05-05T18:59:45.007Z,3.13
2019-05-05T19:02:15.356Z,3.40
2019-05-05T19:05:04.810Z,2.73
2019-05-05T19:07:39.202Z,3.50
2019-05-05T19:10:10.954Z,3.30
2019-05-05T19:12:44.287Z,2.70
2019-05-05T19:15:13.871Z,2.97
2019-05-05T19:17:45.336Z,2.70
2019-05-05T19:20:35.022Z,3.20
2019-05-05T19:23:05.755Z,3.53
2019-05-05T19:25:35.524Z,3.20
2019-05-05T19:28:05.597Z,3.50
2019-05-05T19:30:36.189Z,3.37
2019-05-05T19:33:05.384Z,3.00
2019-05-05T19:35:43.591Z,3.40
2019-05-05T19:38:05.027Z,3.97
2019-05-05T19:40:36.181Z,3.40
2019-05-05T19:43:06.316Z,3.93
2019-05-05T19:45:36.198Z,3.40
2019-05-05T19:48:06.309Z,4.00
2019-05-05T19:50:37.356Z,3.17
2019-05-05T19:53:07.861Z,4.07
2019-05-05T19:55:39.350Z,3.47
2019-05-05T19:58:13.554Z,3.90
2019-05-05T20:00:45.262Z,3.20
2019-05-05T20:03:19.018Z,3.73
2019-05-05T20:05:49.010Z,4.00
2019-05-05T20:08:23.956Z,3.27
2019-05-05T20:10:54.337Z,3.73
2019-05-05T20:13:26.133Z,3.77
2019-05-05T20:16:08.346Z,3.80
2019-05-05T20:18:38.655Z,3.63
2019-05-05T20:21:07.551Z,3.53
2019-05-05T20:23:38.121Z,3.70
2019-05-05T20:26:06.879Z,4.93
2019-05-05T20:28:38.720Z,4.00
2019-05-05T20:31:07.310Z,3.73
2019-05-05T20:33:45.656Z,4.20
2019-05-05T20:36:23.719Z,3.70
2019-05-05T20:38:59.244Z,4.03
2019-05-05T20:41:28.157Z,3.57
2019-05-05T20:43:56.661Z,3.13
2019-05-05T20:46:25.619Z,3.40
2019-05-05T20:48:55.732Z,3.93
2019-05-05T20:51:24.456Z,3.70
2019-05-05T20:53:58.394Z,3.97
2019-05-05T20:56:29.652Z,3.33
2019-05-05T20:58:59.661Z,3.93
2019-05-05T21:01:28.263Z,4.07
2019-05-05T21:03:59.231Z,4.37
2019-05-05T21:06:27.265Z,4.00
2019-05-05T21:08:55.933Z,4.17
2019-05-05T21:11:27.169Z,4.03
2019-05-05T21:14:06.167Z,3.70
2019-05-05T21:16:27.617Z,4.07
2019-05-05T21:19:14.058Z,3.57
2019-05-05T21:21:44.628Z,3.10
2019-05-05T21:24:19.193Z,3.50
2019-05-05T21:26:54.900Z,3.57
2019-05-05T21:29:38.428Z,4.53
2019-05-05T21:31:58.661Z,4.10
2019-05-05T21:34:30.193Z,4.13
2019-05-05T21:36:59.269Z,4.10
2019-05-05T21:39:29.805Z,4.43
2019-05-05T21:41:58.687Z,3.73
2019-05-05T21:44:27.302Z,3.43
2019-05-05T21:46:59.154Z,3.87
2019-05-05T21:49:26.825Z,4.67
2019-05-05T21:52:14.879Z,3.87
2019-05-05T21:54:45.088Z,4.23
2019-05-05T21:57:31.502Z,4.07
2019-05-05T22:00:00.220Z,3.67
2019-05-05T22:02:29.291Z,4.33
2019-05-05T22:04:58.947Z,3.43
2019-05-05T22:07:34.288Z,3.30
2019-05-05T22:10:04.465Z,4.47
2019-05-05T22:12:40.852Z,3.80
2019-05-05T22:15:09.873Z,4.00
2019-05-05T22:17:41.499Z,3.87
2019-05-05T22:20:15.440Z,4.00
2019-05-05T22:22:45.253Z,4.30
2019-05-05T22:25:21.396Z,4.07
2019-05-05T22:27:52.133Z,3.97
2019-05-05T22:30:20.860Z,3.90
2019-05-05T22:32:55.410Z,3.77
2019-05-05T22:35:24.196Z,4.77
2019-05-05T22:37:53.432Z,3.43
2019-05-05T22:40:29.798Z,4.30
2019-05-05T22:42:58.562Z,4.80
2019-05-05T22:45:27.950Z,3.87
2019-05-05T22:47:58.180Z,3.83
2019-05-05T22:50:26.796Z,4.10
2019-05-05T22:52:55.758Z,4.20
2019-05-05T22:55:24.832Z,3.83
2019-05-05T22:57:54.398Z,3.93
2019-05-05T23:00:29.301Z,3.90
2019-05-05T23:03:13.673Z,4.77
2019-05-05T23:05:56.342Z,3.67
2019-05-05T23:08:28.246Z,3.83
2019-05-05T23:10:56.882Z,3.83
2019-05-05T23:13:25.605Z,3.93
2019-05-05T23:15:56.509Z,4.37
2019-05-05T23:18:27.589Z,3.70
2019-05-05T23:20:58.572Z,4.10
2019-05-05T23:23:41.294Z,3.97
2019-05-05T23:26:13.868Z,3.90
2019-05-05T23:28:41.772Z,3.63
2019-05-05T23:31:10.448Z,4.20
2019-05-05T23:33:40.741Z,4.20
2019-05-05T23:36:11.794Z,4.50
2019-05-05T23:38:46.707Z,4.00
2019-05-05T23:41:15.361Z,4.13
2019-05-05T23:43:45.051Z,3.90
2019-05-05T23:46:14.364Z,4.17
2019-05-05T23:48:43.315Z,4.00
2019-05-05T23:51:13.943Z,3.80
2019-05-05T23:53:45.072Z,3.80
2019-05-05T23:56:13.686Z,4.27
2019-05-05T23:58:44.148Z,4.23
